ポートルイス の空港の天気 - METARとTAF

サー・シウサガル・ラングラーム国際空港 ( FIMP / MRU ) - モーリシャス ポートルイス
飛行場実況気象(Metar)
観測時間08/05 11:00 MUT (08/05 07:00 UTC)
風向・風速東南東 7m/s
視程10km以上
天気現象周辺でしゅう雨
全天の4割程度の雲 雲底高度 460m
全天の4割程度の雲 雲底高度 1520m
気温22℃
湿度65%
気圧1023hPa
METARFIMP 050700Z 12013KT 9999 VCSH SCT015 SCT050 22/15 Q1023
過去の天気等 Google飛行場航空写真 Wunderground天気予報

過去48時間のMETAR

飛行場予報(TAF)
発表時間: 8/05 09:05 MUT (8/05 05:05 UTC)
予報対象時間: 5日10時 MUT ~ 6日16時 MUT
風向・風速東南東 8m/s 瞬間風速 13m/s
視程10km以上
全天の4割程度の雲 雲底高度 490m
5日10時 MUT ~ 5日14時 MUT に一時的に
視程5000m
天気現象弱いしゅう雨
少しの雲 雲底高度 240m
全天の4割程度の雲 雲底高度 460m
全天の8割程度の雲 雲底高度 1520m
TAF FIMP 050505Z 0506/0612 11015G25KT 9999 SCT016
TEMPO 0506/0510 5000 -SHRA FEW008 SCT015 BKN050